Time;durP1;ratioP1;P1;durP2;ratioP2;P2;SDS_P1;SDS_P2;PMS_P1;PMS_P2;Temp;Humidity;BMP_temperature;BMP_pressure;BME280_temperature;BME280_humidity;BME280_pressure;Samples;Min_cycle;Max_cycle;Signal;HPM_P1;HPM_P2
2022/10/17 00:03:41;;;;;;;88.28;11.20;;;;;;;14.10;70.44;100232.09;10383967;28;20053;-65
2022/10/17 00:08:43;;;;;;;147.07;10.13;;;;;;;14.16;70.64;100244.81;10385050;28;20517;-65
2022/10/17 00:13:47;;;;;;;264.52;22.35;;;;;;;14.22;70.26;100241.75;10383985;28;20264;-65
2022/10/17 00:18:50;;;;;;;189.10;22.80;;;;;;;14.23;70.12;100246.91;10378831;28;20045;-65
2022/10/17 00:23:53;;;;;;;188.40;15.32;;;;;;;14.25;70.38;100252.91;10381656;28;20825;-65
2022/10/17 00:28:55;;;;;;;127.55;12.15;;;;;;;14.27;70.24;100260.69;10383760;28;20058;-65
2022/10/17 00:33:57;;;;;;;179.55;14.15;;;;;;;14.25;69.98;100266.06;10382590;28;20516;-65
2022/10/17 00:38:59;;;;;;;134.15;13.65;;;;;;;14.19;70.55;100261.22;10385482;28;20054;-65
2022/10/17 00:44:22;;;;;;;102.07;11.00;;;;;;;14.21;70.39;100267.22;10384226;28;20052;-65
2022/10/17 00:49:29;;;;;;;149.60;14.15;;;;;;;14.09;70.65;100268.06;10383732;28;20131;-65
2022/10/17 00:54:36;;;;;;;200.40;23.08;;;;;;;14.08;70.32;100265.56;10383337;28;20430;-65
2022/10/17 00:59:41;;;;;;;113.45;11.50;;;;;;;13.99;70.47;100272.28;10381940;28;20103;-65
2022/10/17 01:04:45;;;;;;;171.60;12.93;;;;;;;13.91;70.46;100277.22;10382176;28;20057;-64
2022/10/17 01:09:48;;;;;;;367.15;20.13;;;;;;;13.91;70.66;100279.00;10382235;28;20337;-65
2022/10/17 01:15:37;;;;;;;518.83;27.15;;;;;;;13.78;70.51;100276.34;10389883;28;20088;-65
2022/10/17 01:20:58;;;;;;;207.10;13.85;;;;;;;13.69;70.44;100280.47;10365929;28;20037;-64
2022/10/17 01:26:40;;;;;;;266.20;13.15;;;;;;;13.50;70.69;100276.53;10388893;28;20053;-65
2022/10/17 01:32:00;;;;;;;366.00;14.65;;;;;;;13.41;70.79;100279.75;10388516;28;20171;-65
2022/10/17 01:37:31;;;;;;;463.57;21.53;;;;;;;13.29;70.86;100284.00;10389096;28;20220;-65
2022/10/17 01:42:56;;;;;;;161.18;12.52;;;;;;;13.16;71.12;100290.16;10396124;28;20081;-65
2022/10/17 01:48:04;;;;;;;83.75;11.43;;;;;;;13.22;71.03;100285.34;10390893;28;20104;-64
2022/10/17 01:53:32;;;;;;;154.68;11.32;;;;;;;13.23;70.62;100280.94;10388421;28;20107;-65
2022/10/17 01:58:50;;;;;;;405.38;18.13;;;;;;;13.15;70.87;100277.97;10381456;28;20076;-65
2022/10/17 02:03:53;;;;;;;752.10;28.80;;;;;;;13.10;71.08;100278.28;10392746;28;20506;-65
2022/10/17 02:08:55;;;;;;;1163.55;42.17;;;;;;;13.00;71.09;100269.31;10395915;28;20053;-65
2022/10/17 02:14:09;;;;;;;509.05;20.75;;;;;;;12.98;71.04;100274.63;10393876;28;20452;-65
2022/10/17 02:19:24;;;;;;;245.20;16.23;;;;;;;12.99;70.82;100272.84;10395368;28;20136;-65
2022/10/17 02:24:29;;;;;;;104.20;13.80;;;;;;;12.98;70.76;100269.38;10395462;28;20060;-65
2022/10/17 02:29:38;;;;;;;41.17;6.93;;;;;;;12.96;70.73;100287.00;10393298;28;20045;-65
2022/10/17 02:34:47;;;;;;;241.07;18.08;;;;;;;13.00;70.76;100284.19;10394790;28;20319;-65
2022/10/17 02:39:50;;;;;;;608.72;20.83;;;;;;;13.00;70.79;100281.56;10394797;28;20248;-65
2022/10/17 02:44:53;;;;;;;270.02;9.52;;;;;;;12.96;70.79;100280.94;10394310;28;20056;-65
2022/10/17 02:49:57;;;;;;;299.67;16.27;;;;;;;12.89;70.70;100283.09;10394333;28;20053;-65
2022/10/17 02:55:08;;;;;;;231.27;10.82;;;;;;;12.81;70.96;100284.53;10394776;28;20065;-65
2022/10/17 03:00:12;;;;;;;403.42;24.45;;;;;;;12.74;70.76;100276.19;10386047;28;20512;-65
2022/10/17 03:05:21;;;;;;;432.83;23.40;;;;;;;12.67;70.67;100287.19;10390088;28;20053;-65
2022/10/17 03:10:23;;;;;;;528.90;26.20;;;;;;;12.64;70.96;100282.97;10386551;28;20119;-65
2022/10/17 03:15:24;;;;;;;420.52;18.83;;;;;;;12.56;71.17;100279.13;10385292;28;20103;-65
2022/10/17 03:20:27;;;;;;;237.20;11.50;;;;;;;12.65;70.86;100284.66;10385646;28;20445;-65
2022/10/17 03:25:28;;;;;;;148.15;9.20;;;;;;;12.72;70.64;100296.44;10385349;28;20464;-65
2022/10/17 03:30:31;;;;;;;214.48;15.68;;;;;;;12.78;70.56;100303.13;10385703;28;20415;-65
2022/10/17 03:35:33;;;;;;;256.45;10.23;;;;;;;12.70;70.67;100308.00;10385694;28;20045;-65
2022/10/17 03:40:34;;;;;;;120.80;10.93;;;;;;;12.69;70.77;100314.16;10384614;28;20053;-65
2022/10/17 03:45:38;;;;;;;61.85;10.98;;;;;;;12.67;70.59;100308.19;10386859;28;20056;-65
2022/10/17 03:50:40;;;;;;;455.42;18.60;;;;;;;12.52;70.67;100309.09;10385250;28;20080;-65
2022/10/17 03:55:42;;;;;;;417.55;17.35;;;;;;;12.52;70.48;100314.34;10383781;28;20139;-65
2022/10/17 04:00:47;;;;;;;212.25;9.02;;;;;;;12.57;70.78;100305.28;10383626;28;20053;-65
2022/10/17 04:05:49;;;;;;;207.05;9.15;;;;;;;12.60;70.62;100312.94;10382521;28;20049;-65
2022/10/17 04:10:51;;;;;;;221.50;11.32;;;;;;;12.61;70.54;100325.16;10383219;28;20050;-65
2022/10/17 04:15:57;;;;;;;411.67;14.68;;;;;;;12.61;70.41;100324.31;10383808;28;20045;-65
2022/10/17 04:21:04;;;;;;;564.03;20.92;;;;;;;12.54;70.17;100331.69;10385578;28;20116;-65
2022/10/17 04:26:06;;;;;;;288.48;13.90;;;;;;;12.43;70.27;100334.16;10385330;28;20099;-65
2022/10/17 04:31:11;;;;;;;578.38;18.10;;;;;;;12.24;70.54;100337.94;10384518;28;20046;-65
2022/10/17 04:36:16;;;;;;;362.35;14.77;;;;;;;12.27;70.68;100351.72;10384385;28;20615;-65
2022/10/17 04:41:19;;;;;;;147.52;7.45;;;;;;;12.35;70.71;100346.88;10381720;28;20092;-65
2022/10/17 04:46:21;;;;;;;334.55;13.13;;;;;;;12.42;70.60;100340.31;10385870;28;20061;-66
2022/10/17 04:51:23;;;;;;;305.33;12.27;;;;;;;12.48;70.44;100339.94;10391650;28;20465;-65
2022/10/17 04:56:27;;;;;;;546.38;12.80;;;;;;;12.39;70.33;100323.94;10392527;28;20656;-66
2022/10/17 05:01:29;;;;;;;396.13;12.45;;;;;;;12.23;70.52;100324.00;10390825;28;20053;-65
2022/10/17 05:06:31;;;;;;;145.57;9.38;;;;;;;12.24;70.46;100344.03;10391002;28;20053;-65
2022/10/17 05:11:33;;;;;;;8.05;4.20;;;;;;;12.23;70.64;100338.88;10391393;28;20085;-65
2022/10/17 05:16:35;;;;;;;142.60;10.30;;;;;;;12.28;70.62;100342.06;10388632;28;20568;-65
2022/10/17 05:21:37;;;;;;;347.70;16.52;;;;;;;12.21;70.36;100346.84;10391723;28;20053;-65
2022/10/17 05:26:39;;;;;;;316.98;13.77;;;;;;;12.21;70.52;100352.09;10392422;28;20121;-65
2022/10/17 05:31:41;;;;;;;264.23;11.85;;;;;;;12.24;70.43;100349.28;10393176;28;20320;-66
2022/10/17 05:36:43;;;;;;;746.97;22.77;;;;;;;12.23;70.46;100349.38;10388028;28;20142;-65
2022/10/17 05:41:45;;;;;;;521.28;15.20;;;;;;;12.19;70.29;100350.47;10387557;28;20551;-65
2022/10/17 05:46:48;;;;;;;407.52;12.25;;;;;;;12.11;70.79;100357.00;10389631;28;20053;-65
2022/10/17 05:51:50;;;;;;;488.95;18.10;;;;;;;12.02;70.88;100361.97;10387596;28;20064;-65
2022/10/17 05:56:53;;;;;;;358.00;15.32;;;;;;;12.11;70.74;100356.16;10387850;28;20259;-65
2022/10/17 06:01:55;;;;;;;251.48;8.70;;;;;;;12.07;70.69;100342.41;10388014;28;20425;-65
2022/10/17 06:06:57;;;;;;;143.90;8.32;;;;;;;12.05;70.73;100353.91;10388602;28;20053;-64
2022/10/17 06:11:59;;;;;;;58.83;5.80;;;;;;;11.95;70.67;100358.84;10389018;28;20523;-65
2022/10/17 06:17:01;;;;;;;86.32;7.75;;;;;;;12.12;70.75;100363.13;10386654;28;20049;-65
2022/10/17 06:22:03;;;;;;;55.50;8.43;;;;;;;12.17;70.44;100370.72;10386592;28;20052;-65
2022/10/17 06:27:05;;;;;;;43.25;7.28;;;;;;;12.38;70.34;100386.03;10388557;28;20058;-65
2022/10/17 06:32:13;;;;;;;279.60;14.10;;;;;;;12.46;69.63;100393.44;10387828;28;20041;-66
2022/10/17 06:37:15;;;;;;;300.67;11.05;;;;;;;12.47;69.82;100395.13;10385427;28;20425;-65
2022/10/17 06:42:17;;;;;;;281.05;10.85;;;;;;;12.67;69.44;100397.41;10384099;28;20493;-65
2022/10/17 06:47:19;;;;;;;151.40;9.82;;;;;;;12.72;69.56;100396.16;10386596;28;20107;-65
2022/10/17 06:52:21;;;;;;;175.15;7.68;;;;;;;12.77;69.37;100402.00;10386637;28;20072;-66
2022/10/17 06:57:23;;;;;;;215.35;17.73;;;;;;;12.81;69.06;100406.13;10379261;28;20541;-65
2022/10/17 07:02:25;;;;;;;127.03;9.00;;;;;;;12.78;68.97;100408.09;10386456;28;20502;-64
2022/10/17 07:07:31;;;;;;;79.88;8.40;;;;;;;12.81;69.31;100416.63;10386072;28;20099;-65
2022/10/17 07:12:34;;;;;;;27.85;9.38;;;;;;;12.87;69.41;100412.75;10381072;28;20406;-65
2022/10/17 07:17:36;;;;;;;46.95;6.88;;;;;;;12.98;69.32;100425.22;10384843;28;20057;-65
2022/10/17 07:22:38;;;;;;;155.85;9.27;;;;;;;13.10;69.20;100421.84;10386240;28;20501;-65
2022/10/17 07:27:40;;;;;;;14.40;5.05;;;;;;;13.24;68.94;100424.44;10374485;28;20064;-65
2022/10/17 07:32:42;;;;;;;24.08;6.65;;;;;;;13.53;69.14;100423.50;10387306;28;20049;-64
2022/10/17 07:37:44;;;;;;;11.75;7.18;;;;;;;13.74;69.18;100424.72;10386475;28;20313;-64
2022/10/17 07:42:46;;;;;;;30.42;7.03;;;;;;;13.78;68.78;100415.69;10386219;28;20068;-65
2022/10/17 07:47:48;;;;;;;16.48;6.43;;;;;;;14.03;68.40;100426.28;10387735;28;20107;-64
2022/10/17 07:52:50;;;;;;;15.00;7.55;;;;;;;14.27;68.27;100435.19;10386375;28;20589;-65
2022/10/17 07:57:52;;;;;;;9.20;5.28;;;;;;;14.42;68.55;100433.31;10385958;28;20049;-65
2022/10/17 08:02:54;;;;;;;11.95;5.13;;;;;;;14.62;68.18;100439.88;10384859;28;20494;-72
2022/10/17 08:07:56;;;;;;;11.30;8.50;;;;;;;14.87;67.63;100443.38;10383820;28;20046;-71
2022/10/17 08:12:58;;;;;;;7.45;5.97;;;;;;;15.19;67.46;100431.41;10383028;28;20041;-71
2022/10/17 08:18:00;;;;;;;12.98;6.97;;;;;;;15.52;66.75;100427.34;10383863;28;20409;-72
2022/10/17 08:23:01;;;;;;;7.43;5.75;;;;;;;15.59;66.75;100426.78;10389637;28;20057;-71
2022/10/17 08:28:04;;;;;;;10.75;5.47;;;;;;;15.80;66.78;100435.78;10383143;28;20052;-72
2022/10/17 08:33:06;;;;;;;9.27;4.97;;;;;;;15.96;67.13;100412.56;10392485;28;20049;-72
2022/10/17 08:38:08;;;;;;;10.75;5.13;;;;;;;16.17;67.01;100415.41;10392105;28;20056;-71
2022/10/17 08:43:33;;;;;;;7.63;5.28;;;;;;;16.46;66.51;100421.16;10392684;28;20053;-72
2022/10/17 08:48:41;;;;;;;10.73;4.50;;;;;;;16.81;66.50;100412.19;10393524;28;20049;-71
2022/10/17 08:54:07;;;;;;;9.57;4.10;;;;;;;17.21;66.21;100406.41;10390389;28;20232;-71
2022/10/17 08:59:15;;;;;;;9.02;3.20;;;;;;;17.63;65.02;100401.19;10392391;28;20049;-71
2022/10/17 09:04:42;;;;;;;8.68;3.30;;;;;;;18.13;62.74;100409.41;10391418;28;20045;-71
2022/10/17 09:09:56;;;;;;;7.68;2.90;;;;;;;18.43;63.28;100399.78;10392004;28;20099;-71
2022/10/17 09:15:16;;;;;;;13.18;3.25;;;;;;;18.78;61.96;100391.44;10390805;28;20468;-71
2022/10/17 09:20:22;;;;;;;9.45;3.20;;;;;;;19.23;59.89;100399.88;10391547;28;20053;-72
2022/10/17 09:25:26;;;;;;;10.73;3.00;;;;;;;19.49;59.59;100398.41;10391360;28;20184;-71
2022/10/17 09:30:54;;;;;;;7.22;2.92;;;;;;;19.57;57.39;100405.66;10391052;28;20490;-71
2022/10/17 09:35:58;;;;;;;5.72;2.58;;;;;;;19.71;57.90;100410.56;10390663;28;20775;-71
2022/10/17 09:41:01;;;;;;;7.15;2.75;;;;;;;19.95;57.12;100422.50;10390167;28;20045;-72
2022/10/17 09:46:10;;;;;;;7.88;2.55;;;;;;;20.22;56.17;100421.81;10389255;28;20497;-71
2022/10/17 09:51:14;;;;;;;6.75;2.55;;;;;;;20.20;56.52;100421.09;10386727;28;20045;-71
2022/10/17 09:56:26;;;;;;;7.57;2.47;;;;;;;19.97;56.11;100439.13;10388032;28;20560;-72
2022/10/17 10:01:30;;;;;;;7.60;2.60;;;;;;;19.88;56.31;100436.47;10388994;28;20049;-71
2022/10/17 10:06:32;;;;;;;11.93;2.42;;;;;;;19.90;56.50;100439.84;10390192;28;20486;-71
2022/10/17 10:11:45;;;;;;;8.38;2.42;;;;;;;20.35;54.42;100446.25;10389962;28;20103;-72
2022/10/17 10:16:48;;;;;;;8.32;2.60;;;;;;;20.66;54.94;100450.41;10390449;28;20056;-71
2022/10/17 10:21:56;;;;;;;6.90;2.28;;;;;;;20.94;53.71;100454.84;10386787;28;20140;-71
2022/10/17 10:27:01;;;;;;;7.63;2.40;;;;;;;20.73;54.15;100445.38;10387428;28;20081;-71
2022/10/17 10:32:10;;;;;;;7.93;2.30;;;;;;;20.71;54.00;100444.69;10386439;28;20046;-71
2022/10/17 10:37:20;;;;;;;8.80;2.35;;;;;;;20.67;53.68;100448.59;10379275;28;20053;-72
2022/10/17 10:42:27;;;;;;;8.43;2.30;;;;;;;20.97;54.13;100449.22;10388282;28;20091;-71
2022/10/17 10:47:31;;;;;;;6.85;2.40;;;;;;;21.06;53.57;100448.38;10387742;28;20041;-71
2022/10/17 10:52:49;;;;;;;7.65;2.50;;;;;;;21.18;52.68;100461.47;10389538;28;20053;-71
2022/10/17 10:57:57;;;;;;;10.75;2.90;;;;;;;21.41;52.98;100455.66;10388276;28;20540;-71
2022/10/17 11:03:12;;;;;;;6.25;2.53;;;;;;;21.49;51.92;100454.91;10386563;28;20053;-71
2022/10/17 11:08:35;;;;;;;5.57;2.30;;;;;;;21.50;52.48;100461.88;10387966;28;20155;-71
2022/10/17 11:13:43;;;;;;;7.50;2.38;;;;;;;21.56;52.00;100458.63;10387542;28;20058;-71
2022/10/17 11:18:53;;;;;;;9.73;2.40;;;;;;;21.57;52.12;100466.50;10386719;28;20059;-71
2022/10/17 11:23:59;;;;;;;;;;;;;;;21.07;51.87;100460.66;10387182;28;20045;-71
2022/10/17 11:29:05;;;;;;;5.32;2.30;;;;;;;21.36;52.42;100470.38;10383634;28;19972;-71
2022/10/17 11:34:18;;;;;;;8.02;2.42;;;;;;;21.34;52.42;100472.34;10385948;28;20798;-71
2022/10/17 11:39:32;;;;;;;8.43;2.38;;;;;;;21.44;52.02;100471.31;10385667;28;20053;-70
2022/10/17 11:44:39;;;;;;;8.57;2.40;;;;;;;21.46;51.72;100471.16;10378869;28;20128;-70
2022/10/17 11:49:49;;;;;;;7.25;2.35;;;;;;;21.55;52.05;100480.94;10371215;28;20061;-70
2022/10/17 11:55:00;;;;;;;9.02;2.80;;;;;;;21.79;51.49;100486.53;10380857;28;20053;-71
2022/10/17 12:00:20;;;;;;;5.97;2.40;;;;;;;22.00;50.88;100492.41;10382773;28;20052;-70
2022/10/17 12:05:32;;;;;;;7.57;2.28;;;;;;;21.93;50.66;100496.66;10386547;28;20060;-70
2022/10/17 12:11:00;;;;;;;7.38;2.42;;;;;;;21.82;51.23;100491.56;10386271;28;20049;-70
2022/10/17 12:16:20;;;;;;;4.85;2.33;;;;;;;21.82;51.22;100492.38;10386288;28;20148;-71
2022/10/17 12:21:22;;;;;;;5.60;2.90;;;;;;;21.95;51.61;100500.00;10386050;28;20635;-70
2022/10/17 12:26:29;;;;;;;6.10;2.50;;;;;;;21.90;51.64;100489.81;10384544;28;20055;-70
2022/10/17 12:31:31;;;;;;;7.78;2.50;;;;;;;21.98;51.50;100489.06;10385432;28;20111;-71
2022/10/17 12:36:34;;;;;;;9.82;3.92;;;;;;;22.30;51.27;100478.75;10386344;28;20114;-71
2022/10/17 12:41:39;;;;;;;9.27;3.47;;;;;;;22.36;51.33;100486.13;10385265;28;20049;-70
2022/10/17 12:47:08;;;;;;;4.65;2.30;;;;;;;22.41;51.56;100485.69;10385302;28;20588;-71
2022/10/17 12:52:21;;;;;;;4.35;2.15;;;;;;;22.57;50.56;100486.66;10386144;28;20180;-71
2022/10/17 12:57:33;;;;;;;11.93;3.05;;;;;;;22.81;50.20;100475.34;10382934;28;20049;-71
2022/10/17 13:02:35;;;;;;;5.63;2.60;;;;;;;23.06;50.40;100471.00;10384786;28;20057;-71
2022/10/17 13:07:41;;;;;;;8.90;2.70;;;;;;;23.39;49.61;100462.16;10385505;28;20104;-70
2022/10/17 13:12:43;;;;;;;8.40;2.55;;;;;;;23.39;49.49;100470.97;10392307;28;20049;-70
2022/10/17 13:17:55;;;;;;;6.88;2.58;;;;;;;23.29;48.94;100480.09;10392068;28;20054;-71
2022/10/17 13:22:57;;;;;;;6.15;2.65;;;;;;;23.19;49.68;100490.91;10392366;28;20053;-70
2022/10/17 13:28:05;;;;;;;6.65;2.45;;;;;;;23.22;48.91;100493.25;10392145;28;20085;-71
2022/10/17 13:33:33;;;;;;;7.55;2.50;;;;;;;23.07;48.85;100496.66;10392082;28;20477;-72
2022/10/17 13:38:35;;;;;;;10.85;2.80;;;;;;;23.11;49.51;100509.53;10391404;28;20045;-70
2022/10/17 13:43:43;;;;;;;5.78;2.33;;;;;;;23.30;49.33;100516.47;10389815;28;20374;-71
2022/10/17 13:48:45;;;;;;;9.18;2.40;;;;;;;23.22;48.38;100513.78;10390550;28;20493;-71
2022/10/17 13:53:47;;;;;;;7.00;2.40;;;;;;;23.06;48.78;100513.69;10382776;28;20497;-71
2022/10/17 13:58:56;;;;;;;7.07;2.47;;;;;;;22.84;48.74;100523.00;10386645;28;20081;-70
2022/10/17 14:03:58;;;;;;;11.83;2.30;;;;;;;22.54;48.82;100529.59;10389573;28;20060;-70
2022/10/17 14:09:29;;;;;;;9.73;2.33;;;;;;;22.42;48.89;100536.16;10386861;28;20554;-69
2022/10/17 14:14:31;;;;;;;;;;;;;;;21.85;50.36;100540.03;10391427;28;20102;-70
2022/10/17 14:20:02;;;;;;;5.03;2.30;;;;;;;22.03;49.57;100537.41;10388707;28;20454;-71
2022/10/17 14:25:34;;;;;;;8.30;2.60;;;;;;;21.91;49.82;100549.25;10388273;28;20061;-71
2022/10/17 14:30:43;;;;;;;7.95;2.40;;;;;;;21.82;50.74;100558.13;10389892;28;20124;-71
2022/10/17 14:35:59;;;;;;;10.07;2.63;;;;;;;21.88;50.28;100558.34;10388365;28;20050;-71
2022/10/17 14:41:15;;;;;;;9.95;2.55;;;;;;;21.91;50.20;100554.56;10388623;28;20068;-71
2022/10/17 14:46:37;;;;;;;8.27;2.40;;;;;;;22.16;50.34;100550.38;10386833;28;20054;-71
2022/10/17 14:51:39;;;;;;;6.68;2.30;;;;;;;22.15;50.04;100548.72;10387455;28;20051;-72
2022/10/17 14:57:13;;;;;;;8.07;2.28;;;;;;;22.12;50.13;100552.50;10387066;28;20532;-71
2022/10/17 15:02:15;;;;;;;7.28;2.83;;;;;;;21.95;50.29;100557.75;10387863;28;20917;-71
2022/10/17 15:07:19;;;;;;;10.82;2.47;;;;;;;21.87;50.72;100570.00;10387867;28;20054;-71
2022/10/17 15:12:23;;;;;;;10.20;2.67;;;;;;;21.86;51.43;100578.16;10387603;28;20103;-71
2022/10/17 15:17:29;;;;;;;9.27;3.00;;;;;;;21.64;51.21;100579.34;10386516;28;20056;-71
2022/10/17 15:22:35;;;;;;;8.27;3.13;;;;;;;21.48;52.24;100584.47;10388327;28;20140;-71
2022/10/17 15:27:37;;;;;;;11.82;3.03;;;;;;;21.19;52.81;100588.19;10387622;28;20929;-71
2022/10/17 15:32:38;;;;;;;8.25;2.90;;;;;;;21.05;53.32;100600.06;10380499;28;20049;-71
2022/10/17 15:37:41;;;;;;;9.93;3.17;;;;;;;20.93;54.01;100602.06;10384627;28;20049;-71
2022/10/17 15:42:44;;;;;;;12.13;3.00;;;;;;;20.73;54.44;100600.41;10380745;28;20049;-71
2022/10/17 15:47:55;;;;;;;8.15;2.67;;;;;;;20.56;54.80;100597.56;10383993;28;20567;-71
2022/10/17 15:52:57;;;;;;;9.35;3.28;;;;;;;20.39;55.51;100598.25;10383329;28;20045;-71
2022/10/17 15:57:59;;;;;;;8.77;3.00;;;;;;;20.16;56.25;100592.34;10385498;28;20089;-72
2022/10/17 16:03:01;;;;;;;14.90;3.10;;;;;;;19.98;56.92;100605.44;10385190;28;20616;-72
2022/10/17 16:08:03;;;;;;;10.75;3.50;;;;;;;19.84;57.44;100615.59;10385002;28;20076;-72
2022/10/17 16:13:05;;;;;;;11.90;2.83;;;;;;;19.76;57.93;100623.34;10384947;28;20486;-72
2022/10/17 16:18:08;;;;;;;12.13;2.90;;;;;;;19.64;58.55;100630.56;10382760;28;20568;-72
2022/10/17 16:23:12;;;;;;;13.18;3.38;;;;;;;19.52;58.90;100636.09;10382919;28;20041;-72
2022/10/17 16:28:14;;;;;;;11.68;2.97;;;;;;;19.35;59.30;100641.00;10384592;28;20049;-72
2022/10/17 16:33:16;;;;;;;13.20;3.17;;;;;;;19.28;59.35;100641.66;10384431;28;20042;-72
2022/10/17 16:38:17;;;;;;;8.05;2.90;;;;;;;19.15;59.74;100644.50;10382784;28;20502;-72
2022/10/17 16:43:19;;;;;;;12.88;2.90;;;;;;;19.07;59.67;100659.38;10389081;28;20083;-72
2022/10/17 16:48:21;;;;;;;7.80;2.70;;;;;;;19.00;59.95;100656.34;10392057;28;20132;-72
2022/10/17 16:53:29;;;;;;;10.80;3.03;;;;;;;18.94;59.99;100661.31;10391361;28;20056;-67
2022/10/17 16:58:31;;;;;;;9.30;3.00;;;;;;;18.86;60.23;100663.75;10388598;28;20531;-66
2022/10/17 17:03:37;;;;;;;11.05;3.13;;;;;;;18.89;60.22;100672.28;10389765;28;20494;-67
2022/10/17 17:08:40;;;;;;;10.43;3.08;;;;;;;18.81;60.80;100687.16;10392600;28;20132;-67
2022/10/17 17:13:42;;;;;;;9.82;3.30;;;;;;;18.69;61.03;100686.34;10391781;28;20084;-67
2022/10/17 17:18:45;;;;;;;14.23;3.50;;;;;;;18.53;61.95;100686.75;10391217;28;20049;-67
2022/10/17 17:23:47;;;;;;;11.65;3.80;;;;;;;18.37;62.29;100696.06;10391820;28;20052;-67
2022/10/17 17:28:49;;;;;;;11.10;3.55;;;;;;;18.21;62.98;100701.75;10390945;28;20413;-67
2022/10/17 17:33:52;;;;;;;12.68;3.50;;;;;;;18.08;63.21;100694.84;10390636;28;20046;-67
2022/10/17 17:39:03;;;;;;;11.20;3.58;;;;;;;17.96;63.57;100695.78;10390714;28;20057;-67
2022/10/17 17:44:06;;;;;;;15.38;3.78;;;;;;;17.90;63.92;100701.56;10390728;28;20103;-67
2022/10/17 17:49:13;;;;;;;16.15;3.88;;;;;;;17.84;64.21;100708.19;10386306;28;20053;-66
2022/10/17 17:54:15;;;;;;;12.43;3.53;;;;;;;17.73;64.78;100709.00;10386720;28;20049;-67
2022/10/17 17:59:16;;;;;;;17.33;4.38;;;;;;;17.73;65.05;100711.66;10383228;28;20135;-67
2022/10/17 18:04:18;;;;;;;14.65;4.88;;;;;;;17.71;64.93;100723.31;10382776;28;20053;-67
2022/10/17 18:09:20;;;;;;;18.02;5.38;;;;;;;17.56;65.03;100722.72;10388985;28;20530;-67
2022/10/17 18:14:25;;;;;;;17.88;6.22;;;;;;;17.45;65.33;100732.41;10389327;28;20215;-67
2022/10/17 18:19:30;;;;;;;17.70;5.40;;;;;;;17.38;65.71;100739.97;10385124;28;20057;-67
2022/10/17 18:24:32;;;;;;;11.77;5.32;;;;;;;17.38;65.59;100744.41;10389099;28;20073;-67
2022/10/17 18:29:34;;;;;;;19.23;5.07;;;;;;;17.34;65.78;100741.16;10389031;28;20060;-67
2022/10/17 18:34:36;;;;;;;16.95;5.28;;;;;;;17.39;65.81;100751.38;10387192;28;20417;-67
2022/10/17 18:39:39;;;;;;;18.13;5.78;;;;;;;17.38;65.92;100750.53;10389088;28;20095;-67
2022/10/17 18:44:40;;;;;;;13.02;5.15;;;;;;;17.35;65.52;100749.91;10389223;28;20057;-67
2022/10/17 18:49:42;;;;;;;12.90;5.43;;;;;;;17.30;65.86;100744.09;10387809;28;20050;-67
2022/10/17 18:54:44;;;;;;;19.80;5.68;;;;;;;17.32;66.14;100750.13;10388635;28;20053;-67
2022/10/17 18:59:46;;;;;;;17.75;5.07;;;;;;;17.33;65.87;100755.31;10388706;28;20156;-67
2022/10/17 19:04:48;;;;;;;17.15;5.95;;;;;;;17.34;66.10;100754.38;10388587;28;20143;-67
2022/10/17 19:09:55;;;;;;;22.60;4.85;;;;;;;17.28;66.70;100757.41;10386814;28;20079;-67
2022/10/17 19:14:56;;;;;;;18.60;5.32;;;;;;;17.30;66.73;100765.25;10388083;28;20069;-66
2022/10/17 19:19:58;;;;;;;18.38;5.18;;;;;;;17.30;66.83;100762.63;10385862;28;20457;-67
2022/10/17 19:25:00;;;;;;;20.08;4.82;;;;;;;17.31;66.89;100759.84;10388834;28;20052;-67
2022/10/17 19:30:03;;;;;;;13.95;5.30;;;;;;;17.31;66.96;100759.84;10387363;28;20057;-67
2022/10/17 19:35:05;;;;;;;23.42;5.10;;;;;;;17.37;66.59;100758.56;10387477;28;20050;-67
2022/10/17 19:40:08;;;;;;;19.30;5.63;;;;;;;17.38;66.42;100758.47;10388003;28;20045;-66
2022/10/17 19:45:10;;;;;;;21.67;5.53;;;;;;;17.27;66.60;100765.47;10387123;28;20438;-67
2022/10/17 19:50:12;;;;;;;16.20;5.45;;;;;;;17.05;67.00;100766.22;10386879;28;20049;-67
2022/10/17 19:55:14;;;;;;;26.67;5.35;;;;;;;16.92;66.87;100766.28;10387350;28;20429;-67
2022/10/17 20:00:16;;;;;;;16.88;4.68;;;;;;;16.77;67.67;100766.53;10386733;28;20064;-67
2022/10/17 20:05:17;;;;;;;23.38;6.15;;;;;;;16.61;68.09;100758.03;10385153;28;20061;-67
2022/10/17 20:10:22;;;;;;;18.50;6.20;;;;;;;16.60;68.02;100764.25;10382372;28;20053;-67
2022/10/17 20:15:24;;;;;;;15.73;4.97;;;;;;;16.61;67.80;100764.13;10387619;28;20053;-67
2022/10/17 20:20:26;;;;;;;21.10;6.60;;;;;;;16.56;68.14;100768.06;10398750;28;20056;-66
2022/10/17 20:25:28;;;;;;;15.27;6.32;;;;;;;16.58;68.14;100780.22;10397301;28;20081;-67
2022/10/17 20:30:30;;;;;;;19.88;6.57;;;;;;;16.58;67.98;100774.09;10397413;28;20054;-67
2022/10/17 20:35:32;;;;;;;14.68;6.50;;;;;;;16.60;68.12;100772.19;10397778;28;20064;-67
2022/10/17 20:40:34;;;;;;;23.30;6.60;;;;;;;16.59;67.96;100781.91;10398884;28;20953;-66
2022/10/17 20:45:39;;;;;;;23.48;6.15;;;;;;;16.55;67.82;100787.53;10395199;28;20587;-67
2022/10/17 20:50:52;;;;;;;19.67;6.85;;;;;;;16.48;67.97;100780.97;10397890;28;20049;-67
2022/10/17 20:56:02;;;;;;;14.52;7.07;;;;;;;16.26;68.77;100792.19;10396593;28;20486;-66
2022/10/17 21:01:08;;;;;;;23.02;7.00;;;;;;;16.16;68.96;100786.66;10396325;28;20602;-66
2022/10/17 21:06:11;;;;;;;25.05;7.18;;;;;;;16.23;68.90;100787.94;10397651;28;20053;-66
2022/10/17 21:11:16;;;;;;;15.88;6.63;;;;;;;16.21;68.72;100787.22;10397572;28;20092;-67
2022/10/17 21:16:19;;;;;;;19.40;6.10;;;;;;;16.24;68.55;100792.25;10397297;28;20068;-66
2022/10/17 21:21:22;;;;;;;21.92;6.55;;;;;;;16.36;68.79;100792.38;10395758;28;20053;-66
2022/10/17 21:26:24;;;;;;;66.85;21.67;;;;;;;16.47;68.73;100803.06;10396998;28;20053;-67
2022/10/17 21:31:26;;;;;;;20.90;7.15;;;;;;;16.49;68.17;100803.81;10389567;28;20042;-67
2022/10/17 21:36:28;;;;;;;19.23;6.60;;;;;;;16.44;68.33;100801.47;10387757;28;20061;-67
2022/10/17 21:41:30;;;;;;;12.20;5.50;;;;;;;16.42;68.10;100795.44;10390742;28;20514;-67
2022/10/17 21:46:33;;;;;;;28.70;6.20;;;;;;;16.44;68.14;100787.44;10390081;28;20057;-67
2022/10/17 21:51:34;;;;;;;19.60;6.43;;;;;;;16.44;68.32;100798.84;10389344;28;20103;-67
2022/10/17 21:56:36;;;;;;;24.25;6.53;;;;;;;16.45;68.14;100799.66;10390494;28;20049;-66
2022/10/17 22:01:41;;;;;;;17.25;6.55;;;;;;;16.39;68.49;100798.28;10388814;28;20242;-66
2022/10/17 22:06:45;;;;;;;20.40;6.45;;;;;;;16.39;68.62;100805.34;10390397;28;20089;-67
2022/10/17 22:11:49;;;;;;;17.40;6.00;;;;;;;16.47;68.06;100808.34;10371232;28;20057;-67
2022/10/17 22:16:51;;;;;;;22.42;7.32;;;;;;;16.42;68.63;100805.13;10387433;28;20049;-67
2022/10/17 22:21:54;;;;;;;25.45;8.02;;;;;;;16.20;68.92;100806.63;10389496;28;20049;-67
2022/10/17 22:26:55;;;;;;;20.17;6.88;;;;;;;16.21;69.25;100815.41;10388055;28;20559;-67
2022/10/17 22:31:57;;;;;;;17.05;5.75;;;;;;;16.26;68.88;100805.38;10388531;28;20053;-67
2022/10/17 22:36:59;;;;;;;20.80;6.20;;;;;;;16.36;68.98;100801.16;10370605;28;20134;-67
2022/10/17 22:42:01;;;;;;;20.15;7.05;;;;;;;16.45;68.41;100799.66;10388139;28;20056;-67
2022/10/17 22:47:03;;;;;;;16.45;6.18;;;;;;;16.41;68.11;100792.88;10371247;28;20061;-67
2022/10/17 22:52:04;;;;;;;18.67;6.70;;;;;;;16.28;68.15;100798.19;10387085;28;20053;-66
2022/10/17 22:57:06;;;;;;;21.77;6.10;;;;;;;16.30;68.31;100800.72;10387868;28;20068;-67
2022/10/17 23:02:08;;;;;;;22.63;7.47;;;;;;;16.20;68.63;100803.97;10386922;28;20049;-66
2022/10/17 23:07:12;;;;;;;21.70;5.97;;;;;;;16.24;68.72;100792.25;10387571;28;20100;-67